createdAt,value
2022-10-21T00:00:56.676Z,99874.06
2022-10-21T00:03:35.177Z,99893.91
2022-10-21T00:06:03.290Z,99892.69
2022-10-21T00:08:30.247Z,99894.50
2022-10-21T00:11:00.419Z,99896.53
2022-10-21T00:13:29.130Z,99902.56
2022-10-21T00:16:13.123Z,99896.56
2022-10-21T00:18:41.962Z,99875.88
2022-10-21T00:21:14.533Z,99885.22
2022-10-21T00:23:42.520Z,99881.00
2022-10-21T00:26:10.419Z,99880.28
2022-10-21T00:28:37.412Z,99880.03
2022-10-21T00:31:11.327Z,99872.53
2022-10-21T00:33:38.838Z,99879.81
2022-10-21T00:36:07.783Z,99891.63
2022-10-21T00:38:35.885Z,99880.59
2022-10-21T00:41:03.640Z,99873.31
2022-10-21T00:43:31.628Z,99878.59
2022-10-21T00:46:05.166Z,99863.78
2022-10-21T00:48:42.551Z,99868.84
2022-10-21T00:51:14.152Z,99863.06
2022-10-21T00:53:46.929Z,99867.06
2022-10-21T00:56:20.366Z,99868.34
2022-10-21T00:58:48.826Z,99857.84
2022-10-21T01:01:19.160Z,99856.59
2022-10-21T01:03:49.921Z,99859.34
2022-10-21T01:06:20.765Z,99851.06
2022-10-21T01:08:47.865Z,99846.53
2022-10-21T01:11:19.065Z,99844.28
2022-10-21T01:14:13.496Z,99844.03
2022-10-21T01:16:49.388Z,99827.19
2022-10-21T01:19:16.215Z,99836.25
2022-10-21T01:22:02.239Z,99824.94
2022-10-21T01:24:41.409Z,99811.13
2022-10-21T01:27:48.906Z,99813.63
2022-10-21T01:30:36.533Z,99814.41
2022-10-21T01:33:45.435Z,99813.44
2022-10-21T01:36:12.288Z,99804.88
2022-10-21T01:38:42.206Z,99802.13
2022-10-21T01:41:30.314Z,99801.09
2022-10-21T01:44:27.517Z,99800.84
2022-10-21T01:47:16.261Z,99801.34
2022-10-21T01:49:53.821Z,99804.13
2022-10-21T01:52:21.292Z,99807.13
2022-10-21T01:54:54.994Z,99807.84
2022-10-21T01:57:27.263Z,99801.09
2022-10-21T01:59:58.376Z,99806.13
2022-10-21T02:02:29.878Z,99800.84
2022-10-21T02:05:02.328Z,99790.31
2022-10-21T02:07:29.293Z,99791.06
2022-10-21T02:09:59.225Z,99783.25
2022-10-21T02:12:32.094Z,99808.13
2022-10-21T02:15:01.170Z,99789.53
2022-10-21T02:17:29.584Z,99798.84
2022-10-21T02:20:01.052Z,99790.84
2022-10-21T02:22:28.996Z,99784.53
2022-10-21T02:25:04.817Z,99795.34
2022-10-21T02:27:31.924Z,99797.06
2022-10-21T02:30:03.857Z,99797.13
2022-10-21T02:32:54.502Z,99796.59
2022-10-21T02:35:30.521Z,99807.13
2022-10-21T02:37:57.305Z,99801.34
2022-10-21T02:40:34.678Z,99809.13
2022-10-21T02:43:09.415Z,99804.88
2022-10-21T02:45:36.810Z,99802.13
2022-10-21T02:48:04.199Z,99797.38
2022-10-21T02:50:32.032Z,99809.41
2022-10-21T02:53:01.494Z,99817.19
2022-10-21T02:55:29.274Z,99814.44
2022-10-21T02:57:56.132Z,99809.16
2022-10-21T03:00:23.322Z,99825.00
2022-10-21T03:02:50.155Z,99817.72
2022-10-21T03:05:17.376Z,99829.31
2022-10-21T03:07:46.741Z,99831.56
2022-10-21T03:10:13.898Z,99826.31
2022-10-21T03:12:42.964Z,99827.03
2022-10-21T03:15:10.543Z,99839.59
2022-10-21T03:17:37.846Z,99854.44
2022-10-21T03:20:05.480Z,99851.91
2022-10-21T03:22:33.741Z,99851.66
2022-10-21T03:25:00.790Z,99861.44
2022-10-21T03:27:27.717Z,99870.75
2022-10-21T03:29:55.095Z,99862.94
2022-10-21T03:32:21.954Z,99870.75
2022-10-21T03:34:48.987Z,99873.50
2022-10-21T03:37:15.962Z,99875.50
2022-10-21T03:39:43.099Z,99864.72
2022-10-21T03:42:09.989Z,99866.44
2022-10-21T03:44:37.124Z,99869.47
2022-10-21T03:47:04.149Z,99868.47
2022-10-21T03:49:31.245Z,99861.44
2022-10-21T03:52:00.438Z,99877.75
2022-10-21T03:54:27.589Z,99891.31
2022-10-21T03:56:54.544Z,99890.56
2022-10-21T03:59:24.103Z,99897.59
2022-10-21T04:01:51.210Z,99895.34
2022-10-21T04:04:18.501Z,99898.84
2022-10-21T04:06:46.220Z,99894.56
2022-10-21T04:09:13.429Z,99891.81
2022-10-21T04:11:40.331Z,99903.13
2022-10-21T04:14:11.452Z,99910.63
2022-10-21T04:16:41.586Z,99908.59
2022-10-21T04:19:11.990Z,99904.34
2022-10-21T04:21:39.039Z,99915.91
2022-10-21T04:24:06.138Z,99916.38
2022-10-21T04:26:33.102Z,99909.09
2022-10-21T04:29:00.381Z,99901.31
2022-10-21T04:31:32.093Z,99886.22
2022-10-21T04:33:59.554Z,99883.97
2022-10-21T04:36:26.455Z,99885.72
2022-10-21T04:38:53.671Z,99887.75
2022-10-21T04:41:20.623Z,99881.22
2022-10-21T04:43:47.696Z,99879.72
2022-10-21T04:46:16.943Z,99889.28
2022-10-21T04:48:46.580Z,99890.81
2022-10-21T04:51:13.790Z,99879.03
2022-10-21T04:53:43.150Z,99873.50
2022-10-21T04:56:10.148Z,99877.28
2022-10-21T04:58:37.531Z,99873.97
2022-10-21T05:01:04.968Z,99867.94
2022-10-21T05:03:32.657Z,99876.75
2022-10-21T05:05:59.597Z,99865.44
2022-10-21T05:08:26.777Z,99856.44
2022-10-21T05:10:58.766Z,99853.91
2022-10-21T05:13:26.531Z,99865.47
2022-10-21T05:15:53.627Z,99869.22
2022-10-21T05:18:20.675Z,99873.75
2022-10-21T05:20:51.998Z,99868.72
2022-10-21T05:23:19.480Z,99863.44
2022-10-21T05:25:51.733Z,99861.44
2022-10-21T05:28:21.309Z,99853.66
2022-10-21T05:30:48.373Z,99857.94
2022-10-21T05:33:16.247Z,99857.41
2022-10-21T05:35:43.531Z,99852.16
2022-10-21T05:38:10.759Z,99848.63
2022-10-21T05:40:37.695Z,99853.91
2022-10-21T05:43:04.753Z,99842.63
2022-10-21T05:45:31.755Z,99854.41
2022-10-21T05:47:58.859Z,99840.09
2022-10-21T05:50:26.063Z,99838.88
2022-10-21T05:52:58.470Z,99843.13
2022-10-21T05:55:27.900Z,99834.59
2022-10-21T05:57:55.477Z,99845.13
2022-10-21T06:00:23.820Z,99838.13
2022-10-21T06:02:50.941Z,99847.88
2022-10-21T06:05:17.916Z,99852.16
2022-10-21T06:07:45.019Z,99859.69
2022-10-21T06:10:12.448Z,99859.19
2022-10-21T06:12:40.180Z,99859.69
2022-10-21T06:15:07.640Z,99856.41
2022-10-21T06:17:35.076Z,99867.72
2022-10-21T06:20:02.220Z,99876.22
2022-10-21T06:22:29.656Z,99871.41
2022-10-21T06:24:56.563Z,99855.06
2022-10-21T06:27:28.361Z,99842.19
2022-10-21T06:29:55.313Z,99837.59
2022-10-21T06:32:22.446Z,99850.28
2022-10-21T06:34:49.331Z,99863.13
2022-10-21T06:37:16.738Z,99860.34
2022-10-21T06:39:43.781Z,99860.03
2022-10-21T06:42:10.989Z,99866.47
2022-10-21T06:44:40.984Z,99865.78
2022-10-21T06:47:08.582Z,99862.94
2022-10-21T06:49:35.463Z,99875.13
2022-10-21T06:52:02.602Z,99880.78
2022-10-21T06:54:29.568Z,99873.75
2022-10-21T06:56:59.463Z,99865.66
2022-10-21T06:59:26.342Z,99852.34
2022-10-21T07:02:00.302Z,99852.59
2022-10-21T07:04:28.359Z,99858.84
2022-10-21T07:06:55.455Z,99845.91
2022-10-21T07:09:22.656Z,99847.97
2022-10-21T07:11:49.830Z,99841.44
2022-10-21T07:14:17.081Z,99849.78
2022-10-21T07:16:44.244Z,99852.25
2022-10-21T07:19:11.480Z,99855.81
2022-10-21T07:21:38.630Z,99856.03
2022-10-21T07:24:05.980Z,99861.13
2022-10-21T07:26:34.362Z,99856.81
2022-10-21T07:29:01.481Z,99852.56
2022-10-21T07:31:32.669Z,99851.66
2022-10-21T07:34:01.277Z,99845.31
2022-10-21T07:36:31.720Z,99857.59
2022-10-21T07:39:02.435Z,99865.59
2022-10-21T07:41:34.950Z,99861.09
2022-10-21T07:44:02.258Z,99858.66
2022-10-21T07:46:29.521Z,99848.25
2022-10-21T07:48:57.273Z,99858.50
2022-10-21T07:51:28.735Z,99853.22
2022-10-21T07:53:58.632Z,99852.94
2022-10-21T07:56:33.333Z,99867.16
2022-10-21T07:59:01.756Z,99856.75
2022-10-21T08:01:29.533Z,99861.13
2022-10-21T08:03:57.457Z,99840.44
2022-10-21T08:06:26.272Z,99825.56
2022-10-21T08:08:53.567Z,99822.31
2022-10-21T08:11:29.634Z,99826.38
2022-10-21T08:14:00.082Z,99833.94
2022-10-21T08:16:27.832Z,99831.44
2022-10-21T08:18:55.741Z,99826.75
2022-10-21T08:21:23.351Z,99835.63
2022-10-21T08:23:50.534Z,99823.94
2022-10-21T08:26:17.720Z,99827.97
2022-10-21T08:28:44.811Z,99808.19
2022-10-21T08:31:16.294Z,99805.53
2022-10-21T08:33:43.687Z,99800.41
2022-10-21T08:36:15.790Z,99826.56
2022-10-21T08:38:43.284Z,99823.91
2022-10-21T08:41:31.783Z,99822.44
2022-10-21T08:44:10.338Z,99819.53
2022-10-21T08:46:52.206Z,99819.94
2022-10-21T08:49:36.005Z,99822.84
2022-10-21T08:52:12.799Z,99832.94
2022-10-21T08:54:47.911Z,99826.00
2022-10-21T08:57:15.584Z,99830.41
2022-10-21T08:59:42.857Z,99819.81
2022-10-21T09:02:13.036Z,99832.22
2022-10-21T09:04:49.243Z,99846.25
2022-10-21T09:07:35.226Z,99846.78
2022-10-21T09:10:12.340Z,99847.41
2022-10-21T09:12:58.609Z,99839.19
2022-10-21T09:15:31.587Z,99821.44
2022-10-21T09:18:21.229Z,99815.56
2022-10-21T09:20:57.185Z,99803.16
2022-10-21T09:23:52.504Z,99789.25
2022-10-21T09:26:34.475Z,99787.44
2022-10-21T09:29:25.411Z,99792.72
2022-10-21T09:31:57.259Z,99772.63
2022-10-21T09:34:43.636Z,99762.56
2022-10-21T09:37:30.496Z,99757.63
2022-10-21T09:40:15.984Z,99740.16
2022-10-21T09:42:47.347Z,99732.75
2022-10-21T09:45:39.208Z,99731.91
2022-10-21T09:48:17.539Z,99739.16
2022-10-21T09:50:47.229Z,99751.00
2022-10-21T09:53:33.310Z,99752.56
2022-10-21T09:56:04.682Z,99748.00
2022-10-21T09:58:37.741Z,99746.28
2022-10-21T10:01:06.282Z,99740.91
2022-10-21T10:03:54.437Z,99744.97
2022-10-21T10:06:30.788Z,99742.41
2022-10-21T10:09:30.209Z,99744.81
2022-10-21T10:12:12.430Z,99743.59
2022-10-21T10:14:44.452Z,99737.03
2022-10-21T10:17:23.970Z,99729.72
2022-10-21T10:20:17.539Z,99724.06
2022-10-21T10:23:09.359Z,99732.94
2022-10-21T10:25:39.664Z,99712.63
2022-10-21T10:28:10.291Z,99709.81
2022-10-21T10:30:48.004Z,99719.00
2022-10-21T10:33:15.302Z,99705.53
2022-10-21T10:35:54.184Z,99711.53
2022-10-21T10:38:31.530Z,99707.44
2022-10-21T10:41:11.847Z,99711.56
2022-10-21T10:43:49.922Z,99707.97
2022-10-21T10:46:38.006Z,99704.94
2022-10-21T10:49:14.291Z,99701.59
2022-10-21T10:51:42.674Z,99701.88
2022-10-21T10:54:28.223Z,99681.72
2022-10-21T10:56:56.698Z,99694.00
2022-10-21T10:59:47.547Z,99689.31
2022-10-21T11:02:20.617Z,99693.31
2022-10-21T11:05:15.170Z,99677.81
2022-10-21T11:07:49.972Z,99686.53
2022-10-21T11:10:36.111Z,99681.97
2022-10-21T11:13:15.474Z,99673.81
2022-10-21T11:16:23.363Z,99674.38
2022-10-21T11:19:39.516Z,99663.56
2022-10-21T11:22:32.483Z,99673.78
2022-10-21T11:25:14.863Z,99670.31
2022-10-21T11:27:54.212Z,99682.09
2022-10-21T11:30:23.844Z,99669.72
2022-10-21T11:33:00.774Z,99677.59
2022-10-21T11:35:27.652Z,99662.41
2022-10-21T11:38:12.938Z,99655.06
2022-10-21T11:40:52.329Z,99652.31
2022-10-21T11:43:26.659Z,99646.53
2022-10-21T11:46:28.100Z,99656.84
2022-10-21T11:49:14.216Z,99640.94
2022-10-21T11:51:53.503Z,99642.13
2022-10-21T11:55:10.362Z,99640.97
2022-10-21T11:57:55.467Z,99637.91
2022-10-21T12:00:25.557Z,99631.13
2022-10-21T12:03:15.852Z,99632.69
2022-10-21T12:06:04.650Z,99620.00
2022-10-21T12:08:48.305Z,99622.16
2022-10-21T12:11:26.454Z,99610.19
2022-10-21T12:14:11.899Z,99602.44
2022-10-21T12:16:41.806Z,99595.63
2022-10-21T12:19:13.400Z,99602.56
2022-10-21T12:21:44.965Z,99600.47
2022-10-21T12:24:38.433Z,99590.13
2022-10-21T12:27:47.420Z,99580.50
2022-10-21T12:30:17.643Z,99579.88
2022-10-21T12:33:03.118Z,99589.31
2022-10-21T12:35:45.471Z,99586.13
2022-10-21T12:38:41.582Z,99587.47
2022-10-21T12:41:41.454Z,99589.91
2022-10-21T12:44:25.321Z,99589.50
2022-10-21T12:46:56.298Z,99586.16
2022-10-21T12:49:32.530Z,99578.91
2022-10-21T12:52:02.549Z,99568.66
2022-10-21T12:54:40.965Z,99574.97
2022-10-21T12:57:24.320Z,99573.19
2022-10-21T12:59:51.498Z,99572.44
2022-10-21T13:02:20.346Z,99569.31
2022-10-21T13:04:51.348Z,99586.63
2022-10-21T13:07:19.521Z,99568.66
2022-10-21T13:09:50.822Z,99574.50
2022-10-21T13:12:23.954Z,99582.25
2022-10-21T13:14:53.748Z,99578.25
2022-10-21T13:17:20.625Z,99563.66
2022-10-21T13:19:50.946Z,99563.44
2022-10-21T13:22:36.040Z,99563.00
2022-10-21T13:25:39.250Z,99563.06
2022-10-21T13:28:14.846Z,99563.31
2022-10-21T13:30:48.036Z,99563.06
2022-10-21T13:33:22.318Z,99553.53
2022-10-21T13:35:56.206Z,99572.41
2022-10-21T13:38:23.208Z,99560.66
2022-10-21T13:40:56.593Z,99551.50
2022-10-21T13:43:38.646Z,99565.13
2022-10-21T13:46:28.832Z,99564.31
2022-10-21T13:48:59.673Z,99563.91
2022-10-21T13:51:29.625Z,99558.56
2022-10-21T13:54:08.802Z,99555.22
2022-10-21T13:56:37.732Z,99558.91
2022-10-21T13:59:07.280Z,99548.72
2022-10-21T14:01:46.773Z,99559.31
2022-10-21T14:04:20.898Z,99561.78
2022-10-21T14:06:54.241Z,99565.34
2022-10-21T14:09:30.702Z,99557.75
2022-10-21T14:12:01.693Z,99563.53
2022-10-21T14:14:31.666Z,99559.50
2022-10-21T14:17:16.115Z,99571.00
2022-10-21T14:19:48.642Z,99579.91
2022-10-21T14:22:22.818Z,99592.94
2022-10-21T14:24:53.817Z,99588.28
2022-10-21T14:27:25.829Z,99592.34
2022-10-21T14:29:53.449Z,99593.09
2022-10-21T14:32:22.611Z,99573.44
2022-10-21T14:34:58.665Z,99584.13
2022-10-21T14:37:25.932Z,99584.25
2022-10-21T14:39:52.903Z,99580.31
2022-10-21T14:42:25.086Z,99575.50
2022-10-21T14:45:02.747Z,99584.38
2022-10-21T14:47:30.094Z,99580.97
2022-10-21T14:50:04.168Z,99579.47
2022-10-21T14:52:40.254Z,99588.69
2022-10-21T14:55:14.984Z,99591.03
2022-10-21T14:57:53.141Z,99586.34
2022-10-21T15:00:30.589Z,99576.31
2022-10-21T15:02:59.216Z,99583.34
2022-10-21T15:05:47.885Z,99581.97
2022-10-21T15:08:22.840Z,99590.63
2022-10-21T15:11:05.030Z,99583.00
2022-10-21T15:13:33.280Z,99580.75
2022-10-21T15:16:02.324Z,99595.72
2022-10-21T15:18:47.478Z,99604.91
2022-10-21T15:21:31.861Z,99617.59
2022-10-21T15:24:00.092Z,99622.19
2022-10-21T15:26:38.033Z,99622.41
2022-10-21T15:29:14.509Z,99629.66
2022-10-21T15:31:41.968Z,99642.03
2022-10-21T15:34:14.378Z,99644.81
2022-10-21T15:36:42.874Z,99659.44
2022-10-21T15:39:10.547Z,99669.56
2022-10-21T15:41:38.936Z,99671.06
2022-10-21T15:44:21.054Z,99678.53
2022-10-21T15:46:50.637Z,99678.13
2022-10-21T15:49:23.629Z,99686.97
2022-10-21T15:51:51.439Z,99672.25
2022-10-21T15:54:20.447Z,99667.03
2022-10-21T15:56:52.300Z,99679.91
2022-10-21T15:59:21.021Z,99676.38
2022-10-21T16:01:49.909Z,99663.59
2022-10-21T16:04:20.064Z,99667.13
2022-10-21T16:06:48.985Z,99659.84
2022-10-21T16:09:23.548Z,99667.19
2022-10-21T16:12:01.433Z,99682.38
2022-10-21T16:14:30.796Z,99672.53
2022-10-21T16:16:59.954Z,99684.84
2022-10-21T16:19:30.629Z,99682.16
2022-10-21T16:21:58.353Z,99686.41
2022-10-21T16:24:27.513Z,99680.84
2022-10-21T16:26:55.011Z,99690.38
2022-10-21T16:29:24.835Z,99697.94
2022-10-21T16:31:53.438Z,99694.19
2022-10-21T16:34:21.085Z,99699.97
2022-10-21T16:36:50.982Z,99699.00
2022-10-21T16:39:24.771Z,99699.63
2022-10-21T16:41:54.180Z,99681.25
2022-10-21T16:44:22.706Z,99682.53
2022-10-21T16:46:53.293Z,99678.25
2022-10-21T16:49:26.393Z,99690.19
2022-10-21T16:51:54.833Z,99688.84
2022-10-21T16:54:23.507Z,99690.63
2022-10-21T16:56:55.024Z,99694.69
2022-10-21T16:59:24.578Z,99686.75
2022-10-21T17:01:52.499Z,99680.78
2022-10-21T17:04:20.526Z,99692.09
2022-10-21T17:06:49.495Z,99689.16
2022-10-21T17:09:17.658Z,99687.31
2022-10-21T17:11:47.464Z,99702.00
2022-10-21T17:14:20.201Z,99696.03
2022-10-21T17:16:51.040Z,99693.75
2022-10-21T17:19:20.994Z,99696.16
2022-10-21T17:21:50.073Z,99692.50
2022-10-21T17:24:19.522Z,99693.13
2022-10-21T17:26:48.013Z,99684.28
2022-10-21T17:29:17.376Z,99685.81
2022-10-21T17:31:46.113Z,99680.22
2022-10-21T17:34:34.347Z,99686.13
2022-10-21T17:37:03.241Z,99683.22
2022-10-21T17:39:35.927Z,99684.06
2022-10-21T17:42:06.210Z,99691.94
2022-10-21T17:44:35.959Z,99698.44
2022-10-21T17:47:03.787Z,99699.25
2022-10-21T17:49:32.734Z,99701.38
2022-10-21T17:52:04.510Z,99708.19
2022-10-21T17:54:36.119Z,99700.19
2022-10-21T17:57:04.430Z,99692.94
2022-10-21T17:59:33.600Z,99689.97
2022-10-21T18:02:02.550Z,99683.75
2022-10-21T18:04:33.684Z,99681.78
2022-10-21T18:07:05.864Z,99678.31
2022-10-21T18:09:38.527Z,99692.69
2022-10-21T18:12:10.236Z,99677.88
2022-10-21T18:14:39.564Z,99681.41
2022-10-21T18:17:10.121Z,99664.66
2022-10-21T18:19:39.958Z,99671.97
2022-10-21T18:22:08.521Z,99674.75
2022-10-21T18:24:38.510Z,99671.31
2022-10-21T18:27:07.970Z,99680.41
2022-10-21T18:29:41.150Z,99682.22
2022-10-21T18:32:13.775Z,99678.50
2022-10-21T18:34:46.646Z,99675.03
2022-10-21T18:37:17.079Z,99672.81
2022-10-21T18:39:55.404Z,99668.06
2022-10-21T18:42:27.327Z,99666.09
2022-10-21T18:45:03.199Z,99668.38
2022-10-21T18:47:33.497Z,99665.16
2022-10-21T18:50:04.366Z,99674.47
2022-10-21T18:52:33.013Z,99661.44
2022-10-21T18:57:38.904Z,99664.00
2022-10-21T19:00:08.733Z,99660.00
2022-10-21T19:02:38.547Z,99664.28
2022-10-21T19:05:06.680Z,99674.59
2022-10-21T19:07:35.215Z,99670.59
2022-10-21T19:10:04.268Z,99660.22
2022-10-21T19:12:33.631Z,99659.00
2022-10-21T19:15:05.195Z,99658.47
2022-10-21T19:17:34.582Z,99660.47
2022-10-21T19:20:07.156Z,99658.72
2022-10-21T19:22:39.852Z,99665.22
2022-10-21T19:25:09.508Z,99657.69
2022-10-21T19:27:40.902Z,99662.19
2022-10-21T19:30:11.562Z,99663.19
2022-10-21T19:32:40.811Z,99666.41
2022-10-21T19:35:10.649Z,99668.16
2022-10-21T19:37:42.840Z,99671.66
2022-10-21T19:40:15.416Z,99679.44
2022-10-21T19:42:43.854Z,99676.66
2022-10-21T19:45:17.554Z,99675.44
2022-10-21T19:47:46.588Z,99683.97
2022-10-21T19:50:18.567Z,99679.16
2022-10-21T19:52:47.551Z,99672.38
2022-10-21T19:55:19.608Z,99667.63
2022-10-21T19:57:48.202Z,99669.91
2022-10-21T20:00:18.098Z,99679.69
2022-10-21T20:02:49.562Z,99690.97
2022-10-21T20:05:18.559Z,99696.00
2022-10-21T20:07:48.720Z,99684.94
2022-10-21T20:10:20.728Z,99681.44
2022-10-21T20:12:49.273Z,99685.69
2022-10-21T20:15:21.085Z,99678.44
2022-10-21T20:17:50.664Z,99676.66
2022-10-21T20:20:19.161Z,99675.19
2022-10-21T20:22:46.702Z,99688.03
2022-10-21T20:25:14.654Z,99685.25
2022-10-21T20:27:42.519Z,99688.50
2022-10-21T20:30:10.978Z,99684.00
2022-10-21T20:32:38.747Z,99677.94
2022-10-21T20:35:06.980Z,99677.19
2022-10-21T20:37:38.419Z,99672.19
2022-10-21T20:40:07.516Z,99676.47
2022-10-21T20:42:35.074Z,99680.22
2022-10-21T20:45:03.655Z,99674.94
2022-10-21T20:47:31.026Z,99681.75
2022-10-21T20:49:58.864Z,99677.69
2022-10-21T20:52:26.198Z,99680.72
2022-10-21T20:54:54.645Z,99678.94
2022-10-21T20:57:22.277Z,99669.63
2022-10-21T20:59:49.652Z,99666.59
2022-10-21T21:02:17.079Z,99669.59
2022-10-21T21:04:44.366Z,99665.56
2022-10-21T21:07:12.850Z,99664.78
2022-10-21T21:12:28.613Z,99653.38
2022-10-21T21:14:55.768Z,99658.66
2022-10-21T21:17:22.759Z,99653.88
2022-10-21T21:19:49.886Z,99649.56
2022-10-21T21:22:17.247Z,99645.75
2022-10-21T21:24:44.550Z,99644.25
2022-10-21T21:27:14.001Z,99642.97
2022-10-21T21:29:41.300Z,99628.19
2022-10-21T21:32:08.532Z,99628.19
2022-10-21T21:34:35.700Z,99629.44
2022-10-21T21:37:02.665Z,99621.91
2022-10-21T21:39:32.055Z,99626.63
2022-10-21T21:41:58.946Z,99625.91
2022-10-21T21:44:26.201Z,99630.44
2022-10-21T21:46:55.345Z,99618.09
2022-10-21T21:49:22.528Z,99626.63
2022-10-21T21:51:49.610Z,99630.41
2022-10-21T21:54:16.747Z,99618.34
2022-10-21T21:56:45.873Z,99617.88
2022-10-21T21:59:13.555Z,99614.13
2022-10-21T22:01:40.501Z,99607.13
2022-10-21T22:04:07.727Z,99606.06
2022-10-21T22:06:37.513Z,99609.88
2022-10-21T22:09:10.131Z,99618.16
2022-10-21T22:11:37.801Z,99607.91
2022-10-21T22:14:05.291Z,99605.63
2022-10-21T22:16:34.459Z,99612.72
2022-10-21T22:19:01.791Z,99602.97
2022-10-21T22:21:31.025Z,99600.75
2022-10-21T22:24:00.718Z,99598.25
2022-10-21T22:26:27.920Z,99599.50
2022-10-21T22:28:55.784Z,99606.31
2022-10-21T22:31:27.408Z,99604.75
2022-10-21T22:34:00.222Z,99607.75
2022-10-21T22:36:27.827Z,99614.78
2022-10-21T22:38:54.953Z,99619.59
2022-10-21T22:41:22.138Z,99609.88
2022-10-21T22:43:49.448Z,99610.88
2022-10-21T22:46:32.992Z,99607.66
2022-10-21T22:49:02.355Z,99604.91
2022-10-21T22:51:29.589Z,99588.13
2022-10-21T22:53:57.010Z,99588.63
2022-10-21T22:56:27.949Z,99588.13
2022-10-21T22:58:55.224Z,99579.38
2022-10-21T23:01:24.125Z,99580.16
2022-10-21T23:03:51.697Z,99586.47
2022-10-21T23:06:23.953Z,99584.69
2022-10-21T23:08:51.150Z,99586.09
2022-10-21T23:11:18.111Z,99586.81
2022-10-21T23:14:02.129Z,99591.34
2022-10-21T23:16:31.472Z,99588.34
2022-10-21T23:19:00.910Z,99589.59
2022-10-21T23:21:28.523Z,99586.38
2022-10-21T23:23:56.047Z,99588.63
2022-10-21T23:26:22.993Z,99588.09
2022-10-21T23:28:50.037Z,99587.06
2022-10-21T23:31:17.178Z,99588.75
2022-10-21T23:33:44.384Z,99590.97
2022-10-21T23:36:13.492Z,99595.22
2022-10-21T23:38:40.653Z,99593.94
2022-10-21T23:41:07.636Z,99598.66
2022-10-21T23:43:34.762Z,99596.78
2022-10-21T23:46:02.056Z,99591.72
2022-10-21T23:48:29.187Z,99591.44
2022-10-21T23:50:56.161Z,99589.38
2022-10-21T23:53:23.387Z,99584.78
2022-10-21T23:55:50.311Z,99583.50
2022-10-21T23:58:17.732Z,99590.19
